createdAt,value
2022-10-14T00:01:52.146Z,23.43
2022-10-14T00:04:20.553Z,23.23
2022-10-14T00:06:48.662Z,18.93
2022-10-14T00:09:17.035Z,18.33
2022-10-14T00:11:45.437Z,22.63
2022-10-14T00:14:16.796Z,23.10
2022-10-14T00:16:46.842Z,20.97
2022-10-14T00:19:16.861Z,21.20
2022-10-14T00:21:47.160Z,18.33
2022-10-14T00:24:17.222Z,21.00
2022-10-14T00:26:45.989Z,19.30
2022-10-14T00:29:16.129Z,22.67
2022-10-14T00:31:44.351Z,21.87
2022-10-14T00:34:16.114Z,18.30
2022-10-14T00:36:45.839Z,20.40
2022-10-14T00:39:14.008Z,20.83
2022-10-14T00:41:42.610Z,23.63
2022-10-14T00:44:43.811Z,24.93
2022-10-14T00:47:12.408Z,27.33
2022-10-14T00:49:45.513Z,21.03
2022-10-14T00:52:18.207Z,18.50
2022-10-14T00:54:48.898Z,19.00
2022-10-14T00:57:17.900Z,17.87
2022-10-14T00:59:46.235Z,17.30
2022-10-14T01:02:14.442Z,20.90
2022-10-14T01:04:44.758Z,19.77
2022-10-14T01:07:25.732Z,17.43
2022-10-14T01:10:04.351Z,16.00
2022-10-14T01:12:43.852Z,17.67
2022-10-14T01:15:18.913Z,17.10
2022-10-14T01:17:56.938Z,14.23
2022-10-14T01:20:44.982Z,16.50
2022-10-14T01:23:37.559Z,16.43
2022-10-14T01:26:19.277Z,14.87
2022-10-14T01:28:58.433Z,13.60
2022-10-14T01:31:33.393Z,14.13
2022-10-14T01:34:04.874Z,17.33
2022-10-14T01:36:38.734Z,17.13
2022-10-14T01:39:15.022Z,14.87
2022-10-14T01:41:47.504Z,13.03
2022-10-14T01:44:18.363Z,14.70
2022-10-14T01:46:52.248Z,13.97
2022-10-14T01:49:26.593Z,12.87
2022-10-14T01:51:59.070Z,15.03
2022-10-14T01:54:32.681Z,15.90
2022-10-14T01:57:03.875Z,14.90
2022-10-14T01:59:35.555Z,13.77
2022-10-14T02:02:05.208Z,17.33
2022-10-14T02:04:33.446Z,15.67
2022-10-14T02:07:08.118Z,16.27
2022-10-14T02:09:46.072Z,14.10
2022-10-14T02:12:26.250Z,17.37
2022-10-14T02:15:03.933Z,13.73
2022-10-14T02:17:36.642Z,16.77
2022-10-14T02:20:12.089Z,15.00
2022-10-14T02:22:44.630Z,15.70
2022-10-14T02:25:18.242Z,13.80
2022-10-14T02:27:48.929Z,16.47
2022-10-14T02:30:18.781Z,18.10
2022-10-14T02:32:53.353Z,15.50
2022-10-14T02:35:25.081Z,18.33
2022-10-14T02:37:55.194Z,17.73
2022-10-14T02:40:28.299Z,18.00
2022-10-14T02:42:56.701Z,17.30
2022-10-14T02:45:26.737Z,23.67
2022-10-14T02:47:56.307Z,20.23
2022-10-14T02:50:24.675Z,22.73
2022-10-14T02:52:52.917Z,21.40
2022-10-14T02:55:21.125Z,18.93
2022-10-14T02:57:49.684Z,21.63
2022-10-14T03:00:18.301Z,23.10
2022-10-14T03:02:47.344Z,20.43
2022-10-14T03:05:17.401Z,21.83
2022-10-14T03:07:45.608Z,21.97
2022-10-14T03:10:13.835Z,19.60
2022-10-14T03:12:44.173Z,20.33
2022-10-14T03:15:12.542Z,23.43
2022-10-14T03:17:40.705Z,19.00
2022-10-14T03:20:10.180Z,20.10
2022-10-14T03:22:39.709Z,20.90
2022-10-14T03:25:09.071Z,21.17
2022-10-14T03:27:37.576Z,23.97
2022-10-14T03:30:06.768Z,21.27
2022-10-14T03:32:35.358Z,18.20
2022-10-14T03:35:04.199Z,23.77
2022-10-14T03:37:34.614Z,25.47
2022-10-14T03:43:49.490Z,21.07
2022-10-14T03:46:18.359Z,25.60
2022-10-14T03:48:46.527Z,20.90
2022-10-14T03:51:15.955Z,22.93
2022-10-14T03:53:44.229Z,21.30
2022-10-14T03:56:12.765Z,23.90
2022-10-14T03:59:38.174Z,20.37
2022-10-14T04:02:52.936Z,23.23
2022-10-14T04:05:22.604Z,21.77
2022-10-14T04:11:49.601Z,25.00
2022-10-14T04:17:25.358Z,23.73
2022-10-14T04:20:18.941Z,23.27
2022-10-14T04:22:56.280Z,21.90
2022-10-14T04:25:35.511Z,22.47
2022-10-14T04:31:02.852Z,22.43
2022-10-14T04:33:33.608Z,20.90
2022-10-14T04:36:04.989Z,23.37
2022-10-14T04:38:35.343Z,20.70
2022-10-14T04:41:03.558Z,20.23
2022-10-14T04:43:34.198Z,21.00
2022-10-14T04:46:02.772Z,23.07
2022-10-14T04:48:30.968Z,19.70
2022-10-14T04:51:00.647Z,22.57
2022-10-14T04:53:29.058Z,22.67
2022-10-14T04:55:58.761Z,24.03
2022-10-14T04:58:27.019Z,21.43
2022-10-14T05:00:56.109Z,19.53
2022-10-14T05:03:24.578Z,21.17
2022-10-14T05:05:52.857Z,18.37
2022-10-14T05:08:47.957Z,19.87
2022-10-14T05:11:25.784Z,22.17
2022-10-14T05:13:56.971Z,19.93
2022-10-14T05:16:25.449Z,24.07
2022-10-14T05:18:54.170Z,23.87
2022-10-14T05:21:54.144Z,23.97
2022-10-14T05:24:37.059Z,22.00
2022-10-14T05:30:23.015Z,20.50
2022-10-14T05:36:05.395Z,19.67
2022-10-14T05:49:00.335Z,17.77
2022-10-14T05:51:45.821Z,17.43
2022-10-14T05:54:14.190Z,22.27
2022-10-14T05:56:46.501Z,15.40
2022-10-14T05:59:14.753Z,16.50
2022-10-14T06:01:44.380Z,15.63
2022-10-14T06:04:20.660Z,15.20
2022-10-14T06:06:58.160Z,18.33
2022-10-14T06:09:33.321Z,20.13
2022-10-14T06:12:03.603Z,21.63
2022-10-14T06:14:31.855Z,17.33
2022-10-14T06:17:01.612Z,14.50
2022-10-14T06:19:33.580Z,16.87
2022-10-14T06:22:01.869Z,15.90
2022-10-14T06:24:49.520Z,15.37
2022-10-14T06:30:35.065Z,16.73
2022-10-14T06:33:04.707Z,13.97
2022-10-14T06:35:33.020Z,13.40
2022-10-14T06:38:01.277Z,12.97
2022-10-14T06:40:29.696Z,16.27
2022-10-14T06:42:59.587Z,12.70
2022-10-14T06:45:27.786Z,13.27
2022-10-14T06:47:56.180Z,9.73
2022-10-14T06:50:25.961Z,14.03
2022-10-14T06:52:54.157Z,15.30
2022-10-14T06:56:10.380Z,12.47
2022-10-14T06:58:58.205Z,13.20
2022-10-14T07:01:30.032Z,13.57
2022-10-14T07:03:59.371Z,12.50
2022-10-14T07:06:36.307Z,11.07
2022-10-14T07:09:15.865Z,12.40
2022-10-14T07:11:55.113Z,8.57
2022-10-14T07:24:57.164Z,8.40
2022-10-14T07:34:20.618Z,10.10
2022-10-14T07:40:25.065Z,9.27
2022-10-14T07:42:53.468Z,12.40
2022-10-14T07:45:21.835Z,9.40
2022-10-14T07:47:53.641Z,10.83
2022-10-14T07:50:23.170Z,7.90
2022-10-14T07:52:51.869Z,9.03
2022-10-14T07:55:36.061Z,19.20
2022-10-14T07:58:42.219Z,8.77
2022-10-14T08:01:16.326Z,8.73
2022-10-14T08:03:46.276Z,11.17
2022-10-14T08:06:15.086Z,8.03
2022-10-14T08:08:44.681Z,12.63
2022-10-14T08:11:17.539Z,7.73
2022-10-14T08:13:52.639Z,9.33
2022-10-14T08:16:24.814Z,10.13
2022-10-14T08:18:58.066Z,11.30
2022-10-14T08:21:36.673Z,9.80
2022-10-14T08:24:09.428Z,11.10
2022-10-14T08:26:51.580Z,7.27
2022-10-14T08:32:35.566Z,8.37
2022-10-14T08:45:43.930Z,6.57
2022-10-14T08:55:01.367Z,6.80
2022-10-14T08:57:33.639Z,7.97
2022-10-14T09:00:05.583Z,7.77
2022-10-14T09:03:04.665Z,5.27
2022-10-14T09:05:40.440Z,8.10
2022-10-14T09:08:15.927Z,6.43
2022-10-14T09:10:45.592Z,6.60
2022-10-14T09:13:26.767Z,8.17
2022-10-14T09:16:19.430Z,6.47
2022-10-14T09:18:56.709Z,5.60
2022-10-14T09:21:51.750Z,5.30
2022-10-14T09:24:24.572Z,5.03
2022-10-14T09:29:47.325Z,9.13
2022-10-14T09:32:26.904Z,7.13
2022-10-14T09:35:14.612Z,6.87
2022-10-14T09:37:56.439Z,6.37
2022-10-14T09:40:36.116Z,9.50
2022-10-14T09:43:27.177Z,6.67
2022-10-14T09:46:04.089Z,6.97
2022-10-14T09:48:38.859Z,9.27
2022-10-14T09:51:12.640Z,7.23
2022-10-14T09:53:54.519Z,9.80
2022-10-14T09:56:37.460Z,8.13
2022-10-14T09:59:25.304Z,8.27
2022-10-14T10:02:09.231Z,6.70
2022-10-14T10:04:47.644Z,7.77
2022-10-14T10:07:36.804Z,7.23
2022-10-14T10:13:57.314Z,10.73
2022-10-14T10:16:36.673Z,8.73
2022-10-14T10:19:53.122Z,11.80
2022-10-14T10:22:59.723Z,10.00
2022-10-14T10:25:45.467Z,12.23
2022-10-14T10:28:21.919Z,9.30
2022-10-14T10:34:28.284Z,9.53
2022-10-14T10:37:05.406Z,9.10
2022-10-14T10:39:52.264Z,9.90
2022-10-14T10:42:39.532Z,10.07
2022-10-14T10:45:36.875Z,12.93
2022-10-14T10:48:24.681Z,16.90
2022-10-14T10:51:03.748Z,12.43
2022-10-14T10:53:51.510Z,9.53
2022-10-14T10:56:33.667Z,11.40
2022-10-14T10:59:55.903Z,11.93
2022-10-14T11:03:07.488Z,10.43
2022-10-14T11:09:40.432Z,10.07
2022-10-14T11:12:35.728Z,13.37
2022-10-14T11:15:30.947Z,10.07
2022-10-14T11:18:06.014Z,10.50
2022-10-14T11:24:49.673Z,7.07
2022-10-14T11:27:25.073Z,8.83
2022-10-14T11:33:23.039Z,10.97
2022-10-14T11:36:00.562Z,8.87
2022-10-14T11:39:16.328Z,7.07
2022-10-14T11:42:20.829Z,7.93
2022-10-14T11:44:59.429Z,6.67
2022-10-14T11:47:33.645Z,25.27
2022-10-14T11:50:06.337Z,9.83
2022-10-14T11:52:46.565Z,7.13
2022-10-14T11:55:20.492Z,8.40
2022-10-14T11:57:58.956Z,6.60
2022-10-14T12:00:44.333Z,7.80
2022-10-14T12:03:22.357Z,7.83
2022-10-14T12:06:01.546Z,9.87
2022-10-14T12:08:35.948Z,9.37
2022-10-14T12:11:08.904Z,7.87
2022-10-14T12:13:43.523Z,10.03
2022-10-14T12:16:26.466Z,7.33
2022-10-14T12:18:58.173Z,5.97
2022-10-14T12:21:37.201Z,7.13
2022-10-14T12:24:15.335Z,7.00
2022-10-14T12:26:55.662Z,8.23
2022-10-14T12:29:28.957Z,6.87
2022-10-14T12:32:23.005Z,8.13
2022-10-14T12:34:54.939Z,12.37
2022-10-14T12:37:43.159Z,8.53
2022-10-14T12:40:29.788Z,7.60
2022-10-14T12:43:20.439Z,8.43
2022-10-14T12:46:06.784Z,11.00
2022-10-14T12:48:39.960Z,8.27
2022-10-14T12:51:13.365Z,9.60
2022-10-14T12:53:52.572Z,8.23
2022-10-14T12:56:36.417Z,7.47
2022-10-14T12:59:07.002Z,11.93
2022-10-14T13:01:44.319Z,7.70
2022-10-14T13:04:22.592Z,10.33
2022-10-14T13:07:46.186Z,10.10
2022-10-14T13:10:50.709Z,6.13
2022-10-14T13:17:01.245Z,9.27
2022-10-14T13:19:48.830Z,8.83
2022-10-14T13:22:46.951Z,12.70
2022-10-14T13:25:36.775Z,15.87
2022-10-14T13:28:32.261Z,6.87
2022-10-14T13:31:30.763Z,7.90
2022-10-14T13:34:14.161Z,8.03
2022-10-14T13:36:53.020Z,8.43
2022-10-14T13:39:21.436Z,9.77
2022-10-14T13:49:29.102Z,10.97
2022-10-14T13:55:54.054Z,11.93
2022-10-14T14:01:09.038Z,7.83
2022-10-14T14:03:40.250Z,11.37
2022-10-14T14:06:18.997Z,9.53
2022-10-14T14:08:57.529Z,12.60
2022-10-14T14:11:27.405Z,9.03
2022-10-14T14:14:03.805Z,8.03
2022-10-14T14:16:35.422Z,40.53
2022-10-14T14:19:22.340Z,8.88
2022-10-14T14:22:08.636Z,10.20
2022-10-14T14:24:39.509Z,8.97
2022-10-14T14:27:16.642Z,10.60
2022-10-14T14:30:18.245Z,10.87
2022-10-14T14:33:24.187Z,9.30
2022-10-14T14:36:18.069Z,8.23
2022-10-14T14:42:32.404Z,7.63
2022-10-14T14:45:05.427Z,9.30
2022-10-14T14:47:45.532Z,9.30
2022-10-14T14:50:30.553Z,7.67
2022-10-14T14:53:19.137Z,7.83
2022-10-14T14:56:03.475Z,9.67
2022-10-14T14:58:44.224Z,9.83
2022-10-14T15:01:28.384Z,8.50
2022-10-14T15:11:05.773Z,68.77
2022-10-14T15:13:48.818Z,9.53
2022-10-14T15:16:42.192Z,6.73
2022-10-14T15:19:45.878Z,7.47
2022-10-14T15:22:33.263Z,8.57
2022-10-14T15:25:07.689Z,10.40
2022-10-14T15:27:50.572Z,11.43
2022-10-14T15:30:34.946Z,9.47
2022-10-14T15:33:38.350Z,5.37
2022-10-14T15:36:54.741Z,27.40
2022-10-14T15:39:28.282Z,6.63
2022-10-14T15:41:56.978Z,18.83
2022-10-14T15:44:27.946Z,8.90
2022-10-14T15:47:35.169Z,10.10
2022-10-14T15:53:11.029Z,11.77
2022-10-14T15:55:41.482Z,14.17
2022-10-14T15:58:11.166Z,11.87
2022-10-14T16:00:40.850Z,11.27
2022-10-14T16:03:14.837Z,13.80
2022-10-14T16:05:44.405Z,14.00
2022-10-14T16:08:24.998Z,13.40
2022-10-14T16:11:17.758Z,14.57
2022-10-14T16:13:50.782Z,13.40
2022-10-14T16:16:31.537Z,15.23
2022-10-14T16:19:10.212Z,14.50
2022-10-14T16:21:46.374Z,12.60
2022-10-14T16:24:23.396Z,12.30
2022-10-14T16:26:53.111Z,12.47
2022-10-14T16:29:21.683Z,9.87
2022-10-14T16:31:52.498Z,12.60
2022-10-14T16:34:22.757Z,13.50
2022-10-14T16:36:53.639Z,13.70
2022-10-14T16:39:25.619Z,11.87
2022-10-14T16:41:56.274Z,11.67
2022-10-14T16:44:32.774Z,10.87
2022-10-14T16:47:22.929Z,12.60
2022-10-14T16:56:06.634Z,10.55
2022-10-14T16:58:53.962Z,12.32
2022-10-14T17:01:26.443Z,10.23
2022-10-14T17:04:05.004Z,10.17
2022-10-14T17:10:07.526Z,7.80
2022-10-14T17:12:38.922Z,9.17
2022-10-14T17:18:52.621Z,7.10
2022-10-14T17:21:23.541Z,7.00
2022-10-14T17:23:53.822Z,10.30
2022-10-14T17:26:22.353Z,10.37
2022-10-14T17:28:50.861Z,9.17
2022-10-14T17:31:22.758Z,6.97
2022-10-14T17:33:52.639Z,8.13
2022-10-14T17:36:24.702Z,9.10
2022-10-14T17:38:53.203Z,10.80
2022-10-14T17:41:46.098Z,8.60
2022-10-14T17:44:14.381Z,5.43
2022-10-14T17:46:53.856Z,6.63
2022-10-14T17:49:44.289Z,5.63
2022-10-14T17:52:14.319Z,6.00
2022-10-14T17:54:45.870Z,6.73
2022-10-14T17:57:18.555Z,7.43
2022-10-14T17:59:48.058Z,7.03
2022-10-14T18:02:19.735Z,6.57
2022-10-14T18:05:21.647Z,7.13
2022-10-14T18:07:52.748Z,6.33
2022-10-14T18:10:21.009Z,6.77
2022-10-14T18:12:51.037Z,6.40
2022-10-14T18:15:21.326Z,5.93
2022-10-14T18:17:49.875Z,5.40
2022-10-14T18:20:18.362Z,7.73
2022-10-14T18:25:16.840Z,9.50
2022-10-14T18:27:52.652Z,9.13
2022-10-14T18:30:20.968Z,8.97
2022-10-14T18:32:49.195Z,6.73
2022-10-14T18:35:17.550Z,6.93
2022-10-14T18:37:54.321Z,9.57
2022-10-14T18:40:25.401Z,7.73
2022-10-14T18:43:03.177Z,7.67
2022-10-14T18:45:55.010Z,8.07
2022-10-14T18:48:24.959Z,7.40
2022-10-14T18:50:58.861Z,8.93
2022-10-14T18:53:28.277Z,7.40
2022-10-14T19:02:31.054Z,7.23
2022-10-14T19:05:02.559Z,7.60
2022-10-14T19:07:41.859Z,8.63
2022-10-14T19:10:17.542Z,7.20
2022-10-14T19:12:48.265Z,5.57
2022-10-14T19:15:19.893Z,6.47
2022-10-14T19:17:54.451Z,6.90
2022-10-14T19:20:23.039Z,10.23
2022-10-14T19:22:56.512Z,8.70
2022-10-14T19:25:27.808Z,7.57
2022-10-14T19:28:02.951Z,10.57
2022-10-14T19:30:59.064Z,8.87
2022-10-14T19:33:51.782Z,6.60
2022-10-14T19:36:24.827Z,7.03
2022-10-14T19:38:57.871Z,7.63
2022-10-14T19:41:27.654Z,10.33
2022-10-14T19:46:47.985Z,8.20
2022-10-14T19:49:42.744Z,7.53
2022-10-14T19:52:13.194Z,7.80
2022-10-14T19:54:43.014Z,9.00
2022-10-14T19:57:11.355Z,7.03
2022-10-14T19:59:41.419Z,7.67
2022-10-14T20:02:10.105Z,6.83
2022-10-14T20:04:39.739Z,22.17
2022-10-14T20:07:09.945Z,9.03
2022-10-14T20:09:39.213Z,6.40
2022-10-14T20:12:09.128Z,9.43
2022-10-14T20:14:37.678Z,8.87
2022-10-14T20:17:11.594Z,7.43
2022-10-14T20:19:41.312Z,8.43
2022-10-14T20:22:09.591Z,6.50
2022-10-14T20:24:40.003Z,8.20
2022-10-14T20:27:11.831Z,7.47
2022-10-14T20:29:40.528Z,12.37
2022-10-14T20:32:09.191Z,7.80
2022-10-14T20:34:38.154Z,8.57
2022-10-14T20:37:11.574Z,7.83
2022-10-14T20:39:46.858Z,7.90
2022-10-14T20:42:15.804Z,7.23
2022-10-14T20:44:44.287Z,8.07
2022-10-14T20:47:12.637Z,7.93
2022-10-14T20:49:41.050Z,7.27
2022-10-14T20:52:11.363Z,6.93
2022-10-14T20:54:40.390Z,6.67
2022-10-14T20:57:08.747Z,7.33
2022-10-14T20:59:40.182Z,8.40
2022-10-14T21:02:15.071Z,18.43
2022-10-14T21:04:43.610Z,6.90
2022-10-14T21:07:13.404Z,7.47
2022-10-14T21:09:42.602Z,7.87
2022-10-14T21:12:48.795Z,7.93
2022-10-14T21:15:18.230Z,7.00
2022-10-14T21:17:49.334Z,6.47
2022-10-14T21:20:18.627Z,10.70
2022-10-14T21:22:48.334Z,7.17
2022-10-14T21:25:32.160Z,7.97
2022-10-14T21:28:06.947Z,6.70
2022-10-14T21:30:35.655Z,6.97
2022-10-14T21:33:04.011Z,6.80
2022-10-14T21:35:32.217Z,7.77
2022-10-14T21:38:02.005Z,6.87
2022-10-14T21:40:30.151Z,13.47
2022-10-14T21:42:58.317Z,7.83
2022-10-14T21:45:26.746Z,6.93
2022-10-14T21:48:04.544Z,8.23
2022-10-14T21:50:35.791Z,8.57
2022-10-14T21:53:10.308Z,9.10
2022-10-14T22:01:46.494Z,5.47
2022-10-14T22:04:17.270Z,9.57
2022-10-14T22:06:46.756Z,5.47
2022-10-14T22:09:20.688Z,4.30
2022-10-14T22:11:49.220Z,4.80
2022-10-14T22:14:18.764Z,9.23
2022-10-14T22:16:48.040Z,5.70
2022-10-14T22:19:17.169Z,4.63
2022-10-14T22:21:46.401Z,5.20
2022-10-14T22:24:16.155Z,7.77
2022-10-14T22:26:45.903Z,4.70
2022-10-14T22:29:15.938Z,6.60
2022-10-14T22:31:44.873Z,6.33
2022-10-14T22:34:16.459Z,6.00
2022-10-14T22:36:45.221Z,4.20
2022-10-14T22:39:17.135Z,5.27
2022-10-14T22:41:45.387Z,4.20
2022-10-14T22:44:15.586Z,4.63
2022-10-14T22:46:46.478Z,8.13
2022-10-14T22:49:19.827Z,3.13
2022-10-14T22:51:54.491Z,2.87
2022-10-14T22:54:27.306Z,3.90
2022-10-14T22:56:55.637Z,3.67
2022-10-14T22:59:23.840Z,3.93
2022-10-14T23:01:52.179Z,4.23
2022-10-14T23:04:20.731Z,4.17
2022-10-14T23:06:50.216Z,3.63
2022-10-14T23:09:19.068Z,3.23
2022-10-14T23:11:49.761Z,3.30
2022-10-14T23:14:18.110Z,3.60
2022-10-14T23:16:50.790Z,5.07
2022-10-14T23:19:24.663Z,4.07
2022-10-14T23:21:52.963Z,4.53
2022-10-14T23:24:21.664Z,3.30
2022-10-14T23:26:51.363Z,3.20
2022-10-14T23:29:19.669Z,4.03
2022-10-14T23:31:47.946Z,3.00
2022-10-14T23:34:16.627Z,3.73
2022-10-14T23:36:45.080Z,4.77
2022-10-14T23:39:17.686Z,2.87
2022-10-14T23:41:45.915Z,3.00
2022-10-14T23:44:15.773Z,2.47
2022-10-14T23:46:44.244Z,2.67
2022-10-14T23:49:25.595Z,2.30
2022-10-14T23:51:55.431Z,2.60
2022-10-14T23:54:23.979Z,2.43
2022-10-14T23:56:52.352Z,2.33
2022-10-14T23:59:22.055Z,5.23
